Welcome to our Virtual Airline
Sign-in:

Flight N002MM

  • Submitted By: Igor Doksas
  • Departure Airport: Juneau Intl (PAJN)
  • Arrival Airport: Admiralty Cove Cabin (ADMC)
  • Aircraft: DHC2 BEAVERA (N003MM_AM)
  • Flight Time: 00.14.58
  • Date Submitted: 2018/08/31
  • Route: WPT1 WPT2 WPT3
  • Status: Accepted
Flight Details
Gross Revenue:
(5 load / $ 0.00 per unit
$ 0.00
Fuel Cost:
(13.1542 fuel used @ 0 / unit)
$ 0.00

Additional Log Information:

View Log

FS[13:31] ----- Flight Opened -----
FS[13:31] Cigar Box - 1.1.4.0
FS[13:31] FS: FSX
FS[13:31] FSUIPC: v4.966
FS[13:31] Flight Number: N002MM
FS[13:31] FS Aircraft: DHC-2A Misty Moorings 3 Amph1
FS[13:31] FS Model: DHC2
FS[13:31] FS Type: DeHavilland
FS[13:31] Departure: PAJN
FS[13:31] Arrival: ADMC
FS[13:31] Flight Level: 2000
FS[13:31] Flight Type: H
FS[13:31] Passengers: 5
FS[13:31] FOB: 566 lbs
FS[13:31] Gate: 4 - PAJN
FS[13:31] Crash Detection: Disabled
FS[13:31] Crash Detection Aircraft: Disabled
FS[13:31] NOTE: Boarding has started
FS[13:31] Engines: 1 Piston
FS[13:31] FS: Paused
FS[13:31] Parking Brake: Engaged
FS[13:31] Engine 1: Started
FS[13:31] Light Data: Beacon ON
FS[13:31] Main Door Closed
FS[13:31] COM1: 121.90
FS[13:31] COM2: 127.80
FS[13:31] Transponder: 1200
FS[13:31] NAV1: 113.70
FS[13:31] NAV2: 110.60
FS[13:31] ADF1: 284.0
FS[13:31] ADF2: 240.0
FS[13:31] Navigation Mode: NAV
FS[13:31] FS: Unpaused
FS[13:31] Light Data: Navigation ON
FS[13:31] Light Data: Landing lights ON
FS[13:31] COM1: 121.90
FS[13:31] Parking Brake: Released
FS[13:32] NOTE: Taxi started
FS[13:35] Parking Brake: Engaged
FS[13:35] COM1: 120.70
FS[13:35] Flaps: Position 2
FS[13:35] Parking Brake: Released
FS[13:36] NOTE: ----- TAKE OFF -----
FS[13:36] GS: 68 knots
FS[13:36] TAS: 69 knots
FS[13:36] IAS: 69 knots
FS[13:36] VS: 3 fpm
FS[13:36] FOB: 564 lbs
FS[13:36] NOTE: ----- TAKE OFF -----
FS[13:36] GS: 69 knots
FS[13:36] TAS: 70 knots
FS[13:36] IAS: 70 knots
FS[13:36] VS: 3 fpm
FS[13:36] FOB: 564 lbs
FS[13:36] Heading: 279°
FS[13:36] NOTE: ----- TAKE OFF -----
FS[13:36] GS: 69 knots
FS[13:36] TAS: 70 knots
FS[13:36] Pitch: 0°
FS[13:36] Bank: 0°
FS[13:36] Heading: 278°
FS[13:36] Pitch: 0°
FS[13:36] Bank: 0°
FS[13:36] Aircraft Weight: 4224.22 lbs
FS[13:36] NOTE: ----- TAKE OFF -----
FS[13:36] Aircraft Weight: 4224.22 lbs
FS[13:36] Nearest Airport: PAJ1
FS[13:36] GS: 69 knots
FS[13:36] IAS: 70 knots
FS[13:36] Nearest Airport: PAJ1
FS[13:36] Distance: 0.34 miles
FS[13:36] VS: 10 fpm
FS[13:36] FOB: 564 lbs
FS[13:36] Heading: 278°
FS[13:36] Pitch: 0°
FS[13:36] Bank: 0°
FS[13:36] Aircraft Weight: 4224.13 lbs
FS[13:36] Nearest Airport: PAJ1
FS[13:36] Distance: 0.34 miles
FS[13:36] Runway: ???
FS[13:36] Ground Surface: Asphalt
FS[13:36] Ground Condition: Normal
FS[13:36] TAS: 71 knots
FS[13:36] IAS: 71 knots
FS[13:36] VS: 12 fpm
FS[13:36] FOB: 564 lbs
FS[13:36] Heading: 278°
FS[13:36] Pitch: 0°
FS[13:36] Bank: 0°
FS[13:36] Aircraft Weight: 4224.13 lbs
FS[13:36] Nearest Airport: PAJ1
FS[13:36] Distance: 0.34 miles
FS[13:36] Distance: 0.34 miles
FS[13:36] Runway: ???
FS[13:36] Ground Surface: Asphalt
FS[13:36] Ground Condition: Normal
FS[13:36] NOTE: ----- TAKE OFF -----
FS[13:36] GS: 69 knots
FS[13:36] TAS: 71 knots
FS[13:36] IAS: 71 knots
FS[13:36] VS: 12 fpm
FS[13:36] FOB: 564 lbs
FS[13:36] Heading: 278°
FS[13:36] Pitch: 0°
FS[13:36] Bank: 0°
FS[13:36] Aircraft Weight: 4224.13 lbs
FS[13:36] Nearest Airport: PAJ1
FS[13:36] Distance: 0.34 miles
FS[13:36] Runway: ???
FS[13:36] Ground Surface: Asphalt
FS[13:36] Ground Condition: Normal
FS[13:36] Runway: ???
FS[13:36] Ground Surface: Asphalt
FS[13:36] Ground Condition: Normal
FS[13:36] Runway: ???
FS[13:36] Ground Surface: Asphalt
FS[13:36] Ground Condition: Normal
FS[13:36] NOTE: Weather Report
FS[13:36] NOTE: Weather Report
FS[13:36] NOTE: Weather Report
FS[13:36] NOTE: Weather Report
FS[13:36] NOTE: Weather Report
FS[13:36] Wind Heading: 340°
FS[13:36] Wind Speed: 0 knots
FS[13:36] NOTE: ----- TAKE OFF -----
FS[13:36] GS: 71 knots
FS[13:36] TAS: 72 knots
FS[13:36] IAS: 72 knots
FS[13:36] VS: 17 fpm
FS[13:36] FOB: 564 lbs
FS[13:36] Heading: 278°
FS[13:36] Pitch: 0°
FS[13:36] Bank: 0°
FS[13:36] Aircraft Weight: 4224.13 lbs
FS[13:36] Nearest Airport: PAJ1
FS[13:36] Distance: 0.34 miles
FS[13:36] Runway: ???
FS[13:36] Ground Surface: Asphalt
FS[13:36] Ground Condition: Normal
FS[13:36] NOTE: Weather Report
FS[13:36] Wind Heading: 340°
FS[13:36] Wind Speed: 0 knots
FS[13:36] Wind Heading: 340°
FS[13:36] Wind Speed: 0 knots
FS[13:36] Wind Heading: 340°
FS[13:36] Wind Speed: 0 knots
FS[13:36] OAT: 14° C
FS[13:36] Wind Heading: 340°
FS[13:36] OAT: 14° C
FS[13:36] Wind Heading: 340°
FS[13:36] OAT: 14° C
FS[13:36] OAT: 14° C
FS[13:36] Wind Speed: 0 knots
FS[13:36] OAT: 14° C
FS[13:36] TAT: 15° C
FS[13:36] TAT: 15° C
FS[13:36] TAT: 15° C
FS[13:36] Wind Speed: 0 knots
FS[13:36] TAT: 15° C
FS[13:36] TAT: 15° C
FS[13:36] Precipitation: None
FS[13:36] Precipitation: None
FS[13:36] OAT: 14° C
FS[13:36] Precipitation: None
FS[13:36] Precipitation: None
FS[13:36] Precipitation: None
FS[13:36] NOTE: ----- TAKE OFF -----
FS[13:36] Dew Point: 4° C
FS[13:36] Dew Point: 4° C
FS[13:36] TAT: 15° C
FS[13:36] Dew Point: 4° C
FS[13:36] Dew Point: 4° C
FS[13:36] Dew Point: 4° C
FS[13:36] GS: 71 knots
FS[13:36] Visibility: 62 miles
FS[13:36] TAS: 73 knots
FS[13:36] Visibility: 62 miles
FS[13:36] Precipitation: None
FS[13:36] Visibility: 62 miles
FS[13:36] Visibility: 62 miles
FS[13:36] Visibility: 62 miles
FS[13:36] METAR: PAJN 311221Z 05009KT 10SM FEW007 BKN032 OVC055 12/11 A2972 RMK AO2 RAE05 P0000 T01170111
FS[13:36] IAS: 73 knots
FS[13:36] METAR: PAJN 311221Z 05009KT 10SM FEW007 BKN032 OVC055 12/11 A2972 RMK AO2 RAE05 P0000 T01170111
FS[13:36] Dew Point: 4° C
FS[13:36] METAR: PAJN 311221Z 05009KT 10SM FEW007 BKN032 OVC055 12/11 A2972 RMK AO2 RAE05 P0000 T01170111
FS[13:36] METAR: PAJN 311221Z 05009KT 10SM FEW007 BKN032 OVC055 12/11 A2972 RMK AO2 RAE05 P0000 T01170111
FS[13:36] METAR: PAJN 311221Z 05009KT 10SM FEW007 BKN032 OVC055 12/11 A2972 RMK AO2 RAE05 P0000 T01170111
FS[13:36] VS: 26 fpm
FS[13:36] Visibility: 62 miles
FS[13:36] FOB: 564 lbs
FS[13:36] METAR: PAJN 311221Z 05009KT 10SM FEW007 BKN032 OVC055 12/11 A2972 RMK AO2 RAE05 P0000 T01170111
FS[13:36] Heading: 277°
FS[13:36] Pitch: 0°
FS[13:36] Bank: 0°
FS[13:36] Aircraft Weight: 4224.13 lbs
FS[13:36] Nearest Airport: PAJ1
FS[13:36] Distance: 0.36 miles
FS[13:36] Runway: ???
FS[13:36] Ground Surface: Asphalt
FS[13:36] Ground Condition: Normal
FS[13:36] NOTE: Weather Report
FS[13:36] Wind Heading: 340°
FS[13:36] Wind Speed: 0 knots
FS[13:36] OAT: 14° C
FS[13:36] TAT: 15° C
FS[13:36] Precipitation: None
FS[13:36] Dew Point: 4° C
FS[13:36] Visibility: 62 miles
FS[13:36] METAR: PAJN 311221Z 05009KT 10SM FEW007 BKN032 OVC055 12/11 A2972 RMK AO2 RAE05 P0000 T01170111
FS[13:36] NOTE: Climb started
FS[13:36] Flaps: Position 0
FS[13:36] GS: 79 knots
FS[13:36] TAS: 80 knots
FS[13:36] IAS: 80 knots
FS[13:36] VS: 259 fpm
FS[13:36] View Mode: Virtual Cockpit
FS[13:37] NOTE: TOC reached
FS[13:37] NOTE: Cruise started
FS[13:37] GS: 120 knots
FS[13:37] TAS: 120 knots
FS[13:37] IAS: 119 knots
FS[13:37] VS: 197 fpm
FS[13:37] FOB: 556 lbs
FS[13:37] Heading: 189°
FS[13:37] Pitch: 1°
FS[13:37] Bank: 2°
FS[13:37] Aircraft Weight: 4216.45 lbs
FS[13:38] COM1: 127.30
FS[13:38] Transponder: 0344
FS[13:41] NOTE: TOD reached
FS[13:41] NOTE: Descent started
FS[13:41] GS: 120 knots
FS[13:41] TAS: 120 knots
FS[13:41] IAS: 119 knots
FS[13:41] VS: -408 fpm
FS[13:41] FOB: 541 lbs
FS[13:41] Heading: 130°
FS[13:41] Pitch: 1°
FS[13:41] Bank: 2°
FS[13:41] Aircraft Weight: 4201.85 lbs
FS[13:41] NOTE: On approach
FS[13:42] Flaps: Position 1
FS[13:42] GS: 95 knots
FS[13:42] TAS: 96 knots
FS[13:42] IAS: 95 knots
FS[13:42] VS: -642 fpm
FS[13:42] Flaps: Position 2
FS[13:42] GS: 85 knots
FS[13:42] TAS: 86 knots
FS[13:42] IAS: 85 knots
FS[13:42] VS: 76 fpm
FS[13:42] Flaps: Position 3
FS[13:42] GS: 71 knots
FS[13:42] TAS: 72 knots
FS[13:42] IAS: 71 knots
FS[13:42] VS: 453 fpm
FS[13:44] NOTE: ----- LANDED -----
FS[13:44] Landing Rate: -183.01 fpm
FS[13:44] GS: 54 knots
FS[13:44] TAS: 54 knots
FS[13:44] IAS: 55 knots
FS[13:44] VS: -199 fpm
FS[13:44] FOB: 538 lbs
FS[13:44] Heading: 88°
FS[13:44] Pitch: 1°
FS[13:44] Bank: 0°
FS[13:44] Aircraft Weight: 4198.84 lbs
FS[13:44] Nearest Airport: HWI
FS[13:44] Distance: 6.91 miles
FS[13:44] Runway: ???
FS[13:44] Ground Surface: Water
FS[13:44] Ground Condition: Normal
FS[13:44] NOTE: Weather Report
FS[13:44] Wind Heading: 340°
FS[13:44] Wind Speed: 0 knots
FS[13:44] OAT: 15° C
FS[13:44] TAT: 15° C
FS[13:44] Precipitation: None
FS[13:44] Dew Point: 4° C
FS[13:44] Visibility: 62 miles
FS[13:44] METAR: No METAR available for ADMC.
FS[13:44] View Mode: Virtual Cockpit
FS[13:44] Flaps: Position 0
FS[13:44] NOTE: Taxi started
FS[13:46] NOTE: Arrived
FS[13:46] Parking Brake: Engaged
FS[13:46] Landing Gear: Retracted
FS[13:46] Light Data: Navigation OFF
FS[13:46] Light Data: Landing lights OFF
FS[13:46] Engine 1: Stopped
FS[13:46] Light Data: Beacon OFF
FS[13:46] Main Door Open
FS[13:46] Spoilers: Extended
FS[13:47] Gate: n/a
FS[13:47] NOTE: Flight Completed
FS[13:47] FS Aircraft: DHC-2A Misty Moorings 3 Amph1
FS[13:47] FS Model: DHC2
FS[13:47] FS Type: DeHavilland
FS[13:47] FOB: 537 lbs
FS[13:47] Fuel Used: 29 lbs
FS[13:47] Flight Time: 00:14:58
FS[13:47] Flight Time (Dawn): 00:00:00
FS[13:47] Flight Time (Day): 00:14:58
FS[13:47] Flight Time (Dusk): 00:00:00
FS[13:47] Flight Time (Night): 00:00:00
FS[13:47] Total Landings: 1
FS[13:47] MaxSim Rate: 0x
FS[13:47] Cigar Box - 1.1.4.0
FS[13:47] ----- Flight Closed -----

Route Map